PIC Brief
Powered by WingX® Technology

WingX Pro7 for iPad now with IAP Routing   Click for AppStore

Airport Status Wx Images Instructions Send feedback
Apt, Navaid, Fix, Name, City, Route, FAR:
N-Number:

KIOW - Iowa City Muni

Communications
ASOS:128.075   319-339-9491
Clearance:119.05
CTAF:122.8
Cedar Rapids App:119.7, 134.05
Location
Sectional:Chicago
State:Iowa (IA)
City:2nm SW of Iowa City
Latitude:41' 38" 23.200°N [41.639778°]
Longitude:91' 32" 53.300°W [-91.548139°]
Elevation:683'
Variation:2E
Map  Satellite  Hybrid
Attendance
  • May-Oct, All days, 6am-9pm
  • Nov-Apr, All days, 7am-9pm
Services
Fuel Available:100LL, Jet A
Airframe Repair:Major
Powerplant Repair:Major
Bottled Oxygen:None
Bulk Oxygen:None
Runways
7/255,002' x 100'Concrete
12/303,900' x 75'Concrete
Comments

Tower Comments

  • APCH/DEP SVC PRVDD BY CHICAGO ARTCC ON FREQS 132.8/328.4 (CEDAR RAPIDS RCAG) WHEN CEDAR RAPIDS APCH CTL CLSD.

Comments

None
Charts
Instrument Approach Procedures
Minimums
KIOW Information
Temperature: -18°C (-1°F)
Dewpoint: -22°C (-7°F)
Density Altitude:-4169' (-4852')
Hover over METAR or TAF to decode
METAR
KIOW 171352Z AUTO 22004KT 10SM CLR M18/M22 A3059 RMK AO2 SLP378 T11831217
TAF [17nm away]
KCID 171140Z 1712/1812 23003KT P6SM SKC
FM171500 23010KT P6SM SKC
FM171800 23014G23KT P6SM SKC
FM180300 22012KT P6SM SKC
NOTAMS
Click here

RADAR

Satellite

VFR Sectional

IFR Chart

AIRMETs
You should know, Professor. You programmed me.
Copyright© Hilton Software LLC 2008-2016